createdAt,value
2022-10-11T00:01:29.406Z,1.20
2022-10-11T00:03:56.496Z,1.58
2022-10-11T00:06:23.353Z,1.30
2022-10-11T00:08:50.481Z,1.40
2022-10-11T00:11:18.859Z,1.20
2022-10-11T00:13:45.913Z,1.05
2022-10-11T00:16:14.054Z,1.23
2022-10-11T00:18:41.764Z,1.58
2022-10-11T00:21:12.905Z,1.20
2022-10-11T00:23:40.691Z,1.20
2022-10-11T00:26:10.811Z,1.23
2022-10-11T00:28:39.755Z,1.13
2022-10-11T00:31:09.166Z,1.33
2022-10-11T00:33:36.274Z,1.40
2022-10-11T00:36:03.942Z,1.38
2022-10-11T00:38:32.088Z,1.10
2022-10-11T00:41:00.188Z,1.48
2022-10-11T00:43:29.912Z,2.05
2022-10-11T00:46:26.540Z,1.50
2022-10-11T00:49:02.915Z,1.00
2022-10-11T00:51:43.458Z,1.20
2022-10-11T00:54:16.753Z,1.08
2022-10-11T00:56:50.257Z,1.20
2022-10-11T00:59:23.680Z,1.20
2022-10-11T01:01:52.851Z,1.05
2022-10-11T01:04:19.897Z,0.95
2022-10-11T01:06:48.908Z,1.27
2022-10-11T01:09:18.226Z,1.17
2022-10-11T01:11:47.832Z,1.00
2022-10-11T01:14:54.171Z,1.13
2022-10-11T01:17:35.664Z,1.10
2022-10-11T01:20:36.491Z,1.40
2022-10-11T01:24:04.658Z,1.10
2022-10-11T01:27:17.114Z,1.02
2022-10-11T01:29:57.266Z,0.95
2022-10-11T01:32:35.271Z,1.20
2022-10-11T01:35:10.840Z,1.13
2022-10-11T01:37:44.520Z,1.17
2022-10-11T01:40:21.014Z,1.40
2022-10-11T01:42:49.372Z,1.08
2022-10-11T01:45:19.622Z,1.10
2022-10-11T01:47:48.041Z,1.20
2022-10-11T01:50:38.800Z,1.08
2022-10-11T01:53:25.709Z,1.25
2022-10-11T01:56:00.578Z,1.30
2022-10-11T01:58:43.034Z,1.10
2022-10-11T02:01:26.396Z,1.17
2022-10-11T02:04:05.374Z,1.10
2022-10-11T02:06:45.532Z,1.13
2022-10-11T02:09:22.197Z,0.93
2022-10-11T02:11:49.669Z,1.30
2022-10-11T02:14:20.809Z,0.82
2022-10-11T02:16:55.753Z,1.15
2022-10-11T02:19:32.734Z,1.30
2022-10-11T02:22:05.678Z,1.30
2022-10-11T02:24:38.594Z,1.10
2022-10-11T02:27:07.672Z,1.02
2022-10-11T02:29:39.557Z,1.15
2022-10-11T02:32:08.754Z,1.40
2022-10-11T02:34:43.253Z,1.00
2022-10-11T02:37:19.313Z,1.40
2022-10-11T02:39:52.435Z,1.10
2022-10-11T02:42:25.800Z,1.08
2022-10-11T02:45:00.673Z,1.25
2022-10-11T02:47:30.516Z,1.20
2022-10-11T02:50:00.508Z,1.30
2022-10-11T02:52:28.086Z,0.93
2022-10-11T02:54:55.088Z,1.45
2022-10-11T02:57:22.069Z,1.25
2022-10-11T02:59:49.196Z,1.20
2022-10-11T03:02:15.973Z,1.17
2022-10-11T03:04:43.448Z,0.95
2022-10-11T03:07:11.655Z,1.38
2022-10-11T03:09:38.569Z,0.98
2022-10-11T03:12:05.828Z,1.35
2022-10-11T03:14:33.517Z,1.50
2022-10-11T03:17:17.288Z,1.25
2022-10-11T03:19:47.571Z,1.20
2022-10-11T03:22:16.356Z,1.30
2022-10-11T03:24:43.512Z,1.27
2022-10-11T03:27:11.139Z,1.13
2022-10-11T03:29:38.245Z,1.15
2022-10-11T03:32:05.701Z,1.17
2022-10-11T03:34:32.957Z,1.33
2022-10-11T03:36:59.794Z,1.00
2022-10-11T03:39:28.176Z,1.50
2022-10-11T03:41:55.036Z,1.23
2022-10-11T03:44:21.896Z,1.13
2022-10-11T03:46:49.031Z,1.20
2022-10-11T03:49:15.894Z,1.33
2022-10-11T03:51:42.839Z,1.48
2022-10-11T03:54:09.675Z,1.27
2022-10-11T03:56:38.287Z,1.25
2022-10-11T03:59:05.079Z,1.40
2022-10-11T04:01:32.358Z,1.13
2022-10-11T04:03:59.244Z,1.00
2022-10-11T04:06:26.234Z,1.10
2022-10-11T04:08:53.353Z,1.42
2022-10-11T04:11:20.585Z,1.10
2022-10-11T04:13:49.095Z,1.35
2022-10-11T04:16:16.061Z,1.40
2022-10-11T04:18:42.945Z,1.35
2022-10-11T04:21:10.401Z,1.50
2022-10-11T04:23:37.291Z,1.30
2022-10-11T04:26:07.445Z,1.23
2022-10-11T04:28:35.884Z,1.30
2022-10-11T04:31:04.492Z,1.20
2022-10-11T04:33:31.564Z,1.58
2022-10-11T04:35:58.596Z,2.15
2022-10-11T04:38:25.818Z,1.48
2022-10-11T04:40:52.724Z,1.30
2022-10-11T04:43:19.862Z,1.02
2022-10-11T04:45:46.968Z,1.83
2022-10-11T04:48:16.733Z,1.27
2022-10-11T04:50:45.113Z,1.40
2022-10-11T04:53:16.425Z,1.35
2022-10-11T04:55:43.421Z,1.20
2022-10-11T04:58:10.288Z,1.25
2022-10-11T05:00:37.343Z,1.15
2022-10-11T05:03:04.800Z,1.00
2022-10-11T05:05:32.992Z,1.00
2022-10-11T05:08:01.045Z,1.80
2022-10-11T05:10:27.945Z,1.30
2022-10-11T05:12:54.991Z,1.10
2022-10-11T05:15:25.286Z,1.48
2022-10-11T05:17:52.301Z,1.13
2022-10-11T05:20:19.166Z,1.08
2022-10-11T05:22:47.873Z,1.20
2022-10-11T05:25:15.018Z,1.23
2022-10-11T05:27:42.007Z,1.35
2022-10-11T05:30:10.262Z,1.40
2022-10-11T05:32:37.097Z,1.80
2022-10-11T05:35:04.902Z,1.27
2022-10-11T05:37:31.830Z,1.40
2022-10-11T05:40:00.100Z,1.75
2022-10-11T05:42:27.257Z,1.33
2022-10-11T05:44:54.114Z,1.60
2022-10-11T05:47:21.058Z,1.20
2022-10-11T05:49:47.911Z,1.50
2022-10-11T05:52:14.892Z,1.08
2022-10-11T05:54:42.023Z,1.60
2022-10-11T05:57:10.412Z,1.38
2022-10-11T05:59:37.892Z,1.20
2022-10-11T06:02:05.633Z,1.45
2022-10-11T06:04:36.165Z,1.60
2022-10-11T06:07:03.692Z,1.50
2022-10-11T06:09:31.292Z,1.50
2022-10-11T06:12:01.791Z,1.20
2022-10-11T06:14:29.947Z,1.27
2022-10-11T06:16:56.799Z,1.65
2022-10-11T06:19:24.396Z,1.00
2022-10-11T06:21:51.776Z,1.13
2022-10-11T06:24:18.808Z,1.35
2022-10-11T06:26:45.640Z,1.40
2022-10-11T06:29:12.608Z,1.02
2022-10-11T06:31:42.072Z,1.27
2022-10-11T06:34:09.069Z,1.48
2022-10-11T06:36:36.239Z,1.20
2022-10-11T06:39:03.491Z,1.30
2022-10-11T06:41:30.708Z,1.20
2022-10-11T06:43:58.006Z,1.40
2022-10-11T06:46:27.632Z,1.30
2022-10-11T06:48:55.912Z,1.60
2022-10-11T06:51:23.870Z,1.10
2022-10-11T06:53:51.845Z,1.20
2022-10-11T06:56:19.232Z,1.38
2022-10-11T06:58:46.567Z,1.20
2022-10-11T07:01:15.933Z,1.40
2022-10-11T07:03:42.725Z,1.35
2022-10-11T07:06:17.654Z,1.38
2022-10-11T07:08:44.681Z,1.20
2022-10-11T07:11:17.953Z,1.20
2022-10-11T07:13:50.865Z,1.63
2022-10-11T07:16:18.858Z,1.38
2022-10-11T07:18:46.326Z,1.38
2022-10-11T07:21:16.552Z,1.30
2022-10-11T07:23:44.455Z,1.33
2022-10-11T07:26:12.309Z,1.50
2022-10-11T07:28:41.318Z,1.48
2022-10-11T07:31:11.965Z,1.92
2022-10-11T07:33:39.045Z,1.23
2022-10-11T07:36:07.844Z,1.27
2022-10-11T07:38:40.369Z,1.13
2022-10-11T07:43:36.157Z,1.20
2022-10-11T07:46:04.826Z,1.48
2022-10-11T07:48:33.529Z,1.10
2022-10-11T07:51:06.356Z,1.13
2022-10-11T07:53:40.382Z,1.60
2022-10-11T07:56:08.894Z,1.35
2022-10-11T07:58:36.529Z,1.33
2022-10-11T08:01:04.478Z,1.30
2022-10-11T08:03:31.606Z,1.15
2022-10-11T08:06:00.998Z,1.17
2022-10-11T08:08:29.347Z,1.38
2022-10-11T08:10:59.287Z,1.40
2022-10-11T08:13:27.893Z,1.30
2022-10-11T08:15:55.490Z,1.05
2022-10-11T08:18:22.762Z,1.27
2022-10-11T08:20:50.015Z,1.23
2022-10-11T08:23:17.940Z,2.63
2022-10-11T08:25:47.501Z,1.40
2022-10-11T08:28:16.062Z,1.48
2022-10-11T08:30:48.692Z,1.35
2022-10-11T08:33:16.547Z,1.73
2022-10-11T08:35:43.648Z,1.20
2022-10-11T08:38:10.763Z,1.30
2022-10-11T08:40:38.063Z,1.30
2022-10-11T08:43:11.965Z,1.27
2022-10-11T08:45:48.877Z,1.70
2022-10-11T08:48:21.297Z,1.40
2022-10-11T08:50:53.990Z,1.30
2022-10-11T08:53:36.352Z,1.48
2022-10-11T08:58:43.078Z,1.25
2022-10-11T09:01:18.449Z,1.83
2022-10-11T09:03:47.994Z,1.75
2022-10-11T09:06:38.438Z,1.50
2022-10-11T09:09:29.013Z,1.38
2022-10-11T09:12:16.561Z,1.25
2022-10-11T09:15:15.844Z,1.50
2022-10-11T09:18:17.485Z,2.60
2022-10-11T09:21:06.892Z,4.80
2022-10-11T09:23:52.636Z,2.60
2022-10-11T09:26:26.382Z,2.80
2022-10-11T09:29:06.076Z,2.03
2022-10-11T09:31:33.453Z,2.00
2022-10-11T09:34:12.400Z,1.40
2022-10-11T09:39:50.921Z,1.60
2022-10-11T09:42:18.096Z,1.52
2022-10-11T09:44:48.880Z,1.70
2022-10-11T09:47:19.992Z,1.37
2022-10-11T09:49:56.563Z,1.50
2022-10-11T09:52:24.913Z,1.58
2022-10-11T09:54:55.664Z,1.55
2022-10-11T09:57:27.320Z,1.60
2022-10-11T10:00:07.270Z,1.60
2022-10-11T10:02:43.262Z,1.60
2022-10-11T10:05:20.429Z,1.33
2022-10-11T10:08:21.439Z,2.13
2022-10-11T10:10:59.779Z,1.60
2022-10-11T10:13:43.997Z,1.58
2022-10-11T10:16:24.867Z,1.45
2022-10-11T10:18:55.491Z,1.40
2022-10-11T10:21:34.101Z,1.60
2022-10-11T10:24:06.398Z,1.40
2022-10-11T10:26:34.056Z,1.38
2022-10-11T10:29:15.465Z,1.20
2022-10-11T10:34:55.304Z,1.20
2022-10-11T10:37:45.671Z,1.25
2022-10-11T10:40:21.529Z,1.30
2022-10-11T10:42:49.787Z,2.25
2022-10-11T10:45:31.907Z,1.48
2022-10-11T10:50:54.748Z,1.40
2022-10-11T10:53:33.376Z,1.60
2022-10-11T10:56:09.056Z,1.55
2022-10-11T10:59:20.508Z,1.67
2022-10-11T11:02:15.900Z,1.90
2022-10-11T11:05:04.306Z,1.83
2022-10-11T11:10:15.628Z,1.50
2022-10-11T11:12:52.785Z,1.52
2022-10-11T11:15:32.651Z,1.58
2022-10-11T11:18:22.868Z,1.30
2022-10-11T11:21:09.169Z,1.33
2022-10-11T11:23:47.750Z,1.23
2022-10-11T11:26:25.134Z,1.92
2022-10-11T11:29:13.375Z,1.75
2022-10-11T11:32:03.651Z,1.27
2022-10-11T11:34:38.185Z,1.48
2022-10-11T11:37:15.031Z,1.40
2022-10-11T11:39:49.384Z,1.25
2022-10-11T11:42:24.746Z,1.20
2022-10-11T11:44:53.528Z,1.45
2022-10-11T11:47:27.257Z,1.35
2022-10-11T11:49:59.902Z,1.50
2022-10-11T11:52:35.140Z,1.17
2022-10-11T11:55:10.406Z,1.23
2022-10-11T11:57:57.720Z,1.50
2022-10-11T12:00:34.098Z,1.20
2022-10-11T12:03:09.427Z,1.00
2022-10-11T12:05:36.890Z,1.30
2022-10-11T12:08:07.538Z,1.33
2022-10-11T12:10:38.849Z,1.27
2022-10-11T12:13:22.258Z,1.17
2022-10-11T12:16:06.964Z,1.15
2022-10-11T12:18:47.189Z,0.95
2022-10-11T12:21:24.680Z,1.50
2022-10-11T12:23:54.534Z,1.20
2022-10-11T12:26:43.970Z,1.27
2022-10-11T12:29:56.677Z,1.40
2022-10-11T12:35:56.974Z,0.73
2022-10-11T12:38:31.086Z,1.00
2022-10-11T12:41:48.595Z,1.40
2022-10-11T12:44:23.434Z,1.00
2022-10-11T12:47:31.684Z,1.23
2022-10-11T12:50:15.153Z,1.50
2022-10-11T12:52:58.513Z,1.20
2022-10-11T12:55:50.700Z,1.10
2022-10-11T12:58:32.721Z,1.42
2022-10-11T13:01:20.644Z,1.08
2022-10-11T13:04:02.999Z,1.60
2022-10-11T13:06:35.202Z,1.70
2022-10-11T13:09:14.587Z,1.30
2022-10-11T13:11:52.350Z,0.98
2022-10-11T13:14:24.295Z,1.80
2022-10-11T13:19:26.830Z,1.00
2022-10-11T13:21:57.424Z,1.52
2022-10-11T13:24:27.939Z,1.00
2022-10-11T13:26:56.813Z,1.20
2022-10-11T13:29:32.515Z,1.10
2022-10-11T13:32:00.810Z,1.15
2022-10-11T13:34:31.747Z,1.20
2022-10-11T13:37:02.167Z,1.40
2022-10-11T13:39:34.358Z,1.20
2022-10-11T13:42:05.649Z,0.98
2022-10-11T13:44:37.677Z,1.00
2022-10-11T13:49:35.210Z,1.13
2022-10-11T13:52:05.576Z,0.82
2022-10-11T13:55:07.675Z,0.60
2022-10-11T13:57:39.023Z,0.63
2022-10-11T14:00:25.842Z,0.90
2022-10-11T14:02:59.164Z,0.80
2022-10-11T14:05:32.630Z,0.93
2022-10-11T14:08:02.304Z,1.00
2022-10-11T14:10:30.164Z,1.73
2022-10-11T14:13:06.010Z,0.90
2022-10-11T14:15:36.808Z,0.90
2022-10-11T14:18:49.567Z,0.95
2022-10-11T14:21:47.268Z,1.00
2022-10-11T14:24:15.082Z,0.90
2022-10-11T14:26:45.744Z,0.90
2022-10-11T14:29:22.082Z,1.17
2022-10-11T14:31:49.937Z,1.00
2022-10-11T14:34:22.970Z,1.30
2022-10-11T14:36:50.869Z,1.00
2022-10-11T14:39:20.462Z,0.90
2022-10-11T14:41:48.093Z,1.60
2022-10-11T14:44:15.745Z,1.40
2022-10-11T14:46:44.913Z,1.75
2022-10-11T14:49:14.714Z,1.20
2022-10-11T14:51:45.766Z,1.05
2022-10-11T14:54:14.258Z,1.10
2022-10-11T14:56:41.830Z,1.25
2022-10-11T14:59:12.567Z,1.48
2022-10-11T15:01:39.723Z,1.23
2022-10-11T15:04:06.744Z,1.40
2022-10-11T15:06:38.130Z,1.35
2022-10-11T15:09:08.202Z,2.22
2022-10-11T15:11:37.252Z,1.45
2022-10-11T15:14:05.190Z,1.90
2022-10-11T15:16:32.898Z,1.30
2022-10-11T15:19:00.389Z,1.30
2022-10-11T15:21:29.798Z,1.30
2022-10-11T15:23:57.054Z,1.10
2022-10-11T15:26:28.644Z,0.70
2022-10-11T15:28:57.441Z,1.00
2022-10-11T15:31:25.088Z,1.15
2022-10-11T15:33:52.226Z,0.63
2022-10-11T15:36:22.156Z,1.00
2022-10-11T15:38:49.974Z,0.88
2022-10-11T15:41:19.962Z,0.80
2022-10-11T15:43:49.609Z,1.10
2022-10-11T15:46:20.091Z,1.27
2022-10-11T15:48:47.951Z,1.08
2022-10-11T15:51:15.385Z,0.75
2022-10-11T15:53:42.309Z,0.70
2022-10-11T15:56:14.065Z,0.93
2022-10-11T15:58:42.788Z,2.85
2022-10-11T16:01:15.651Z,2.03
2022-10-11T16:03:43.582Z,4.82
2022-10-11T16:06:12.094Z,1.60
2022-10-11T16:08:39.745Z,1.50
2022-10-11T16:11:08.596Z,2.40
2022-10-11T16:13:36.433Z,1.85
2022-10-11T16:16:06.460Z,1.80
2022-10-11T16:18:36.236Z,1.40
2022-10-11T16:21:08.757Z,4.45
2022-10-11T16:23:36.947Z,1.50
2022-10-11T16:26:06.811Z,1.40
2022-10-11T16:28:34.468Z,0.98
2022-10-11T16:31:07.800Z,1.00
2022-10-11T16:33:36.320Z,1.35
2022-10-11T16:36:07.053Z,1.00
2022-10-11T16:38:34.180Z,1.40
2022-10-11T16:41:06.016Z,1.73
2022-10-11T16:43:33.122Z,0.95
2022-10-11T16:46:03.880Z,1.30
2022-10-11T16:48:31.141Z,2.53
2022-10-11T16:51:07.841Z,2.92
2022-10-11T16:53:35.577Z,2.60
2022-10-11T16:56:05.626Z,1.73
2022-10-11T16:58:36.270Z,3.70
2022-10-11T17:01:08.156Z,2.08
2022-10-11T17:03:35.351Z,2.55
2022-10-11T17:06:02.202Z,2.50
2022-10-11T17:08:30.825Z,4.63
2022-10-11T17:10:58.159Z,2.08
2022-10-11T17:13:25.135Z,1.50
2022-10-11T17:15:52.663Z,1.52
2022-10-11T17:18:19.549Z,2.60
2022-10-11T17:20:46.507Z,1.95
2022-10-11T17:23:13.350Z,3.22
2022-10-11T17:25:47.084Z,2.60
2022-10-11T17:28:14.336Z,1.63
2022-10-11T17:30:41.163Z,1.48
2022-10-11T17:33:09.459Z,2.40
2022-10-11T17:35:36.513Z,1.65
2022-10-11T17:38:06.367Z,1.50
2022-10-11T17:40:34.217Z,1.95
2022-10-11T17:43:02.693Z,2.40
2022-10-11T17:45:29.850Z,1.90
2022-10-11T17:47:56.700Z,2.42
2022-10-11T17:50:23.849Z,2.70
2022-10-11T17:52:51.134Z,2.78
2022-10-11T17:55:19.177Z,2.10
2022-10-11T17:57:46.143Z,2.78
2022-10-11T18:00:16.548Z,2.53
2022-10-11T18:02:43.680Z,2.08
2022-10-11T18:05:10.885Z,2.20
2022-10-11T18:07:38.546Z,3.65
2022-10-11T18:10:06.721Z,3.50
2022-10-11T18:12:33.878Z,4.35
2022-10-11T18:15:00.720Z,5.63
2022-10-11T18:17:32.532Z,5.38
2022-10-11T18:19:59.541Z,3.97
2022-10-11T18:22:26.916Z,2.42
2022-10-11T18:24:54.078Z,2.58
2022-10-11T18:27:21.109Z,2.78
2022-10-11T18:29:48.077Z,1.95
2022-10-11T18:32:14.915Z,2.70
2022-10-11T18:34:43.404Z,2.28
2022-10-11T18:37:10.651Z,2.08
2022-10-11T18:39:37.605Z,2.13
2022-10-11T18:42:05.197Z,1.98
2022-10-11T18:44:32.646Z,2.30
2022-10-11T18:46:59.625Z,2.42
2022-10-11T18:49:26.756Z,2.78
2022-10-11T18:51:55.129Z,2.95
2022-10-11T18:54:22.192Z,3.60
2022-10-11T18:56:49.871Z,3.65
2022-10-11T18:59:17.435Z,3.97
2022-10-11T19:01:45.248Z,3.92
2022-10-11T19:04:14.593Z,4.47
2022-10-11T19:06:45.251Z,4.88
2022-10-11T19:09:16.159Z,3.63
2022-10-11T19:11:43.905Z,3.58
2022-10-11T19:14:13.864Z,3.60
2022-10-11T19:16:43.426Z,2.60
2022-10-11T19:19:12.495Z,2.95
2022-10-11T19:21:40.162Z,2.45
2022-10-11T19:24:08.605Z,2.67
2022-10-11T19:26:40.702Z,3.53
2022-10-11T19:29:10.408Z,2.85
2022-10-11T19:31:42.912Z,3.45
2022-10-11T19:34:09.925Z,3.55
2022-10-11T19:36:37.936Z,3.20
2022-10-11T19:39:06.276Z,3.22
2022-10-11T19:41:34.080Z,2.80
2022-10-11T19:44:02.255Z,3.45
2022-10-11T19:46:50.408Z,2.80
2022-10-11T19:49:17.783Z,2.42
2022-10-11T19:51:45.116Z,2.20
2022-10-11T19:54:14.410Z,2.55
2022-10-11T19:56:42.488Z,2.17
2022-10-11T19:59:12.391Z,2.63
2022-10-11T20:01:40.310Z,2.40
2022-10-11T20:04:22.666Z,2.38
2022-10-11T20:07:00.544Z,2.47
2022-10-11T20:09:30.047Z,1.95
2022-10-11T20:11:58.610Z,1.80
2022-10-11T20:14:26.945Z,2.20
2022-10-11T20:16:54.059Z,1.60
2022-10-11T20:19:23.679Z,1.98
2022-10-11T20:21:53.628Z,1.70
2022-10-11T20:24:21.010Z,1.80
2022-10-11T20:26:47.807Z,1.90
2022-10-11T20:29:15.242Z,2.42
2022-10-11T20:31:43.553Z,1.95
2022-10-11T20:34:12.333Z,1.85
2022-10-11T20:36:39.446Z,2.28
2022-10-11T20:39:06.482Z,1.98
2022-10-11T20:41:35.709Z,1.90
2022-10-11T20:44:04.084Z,1.92
2022-10-11T20:46:34.518Z,1.90
2022-10-11T20:49:06.360Z,2.10
2022-10-11T20:51:36.652Z,2.00
2022-10-11T20:54:04.585Z,2.20
2022-10-11T20:56:32.298Z,2.35
2022-10-11T20:58:59.621Z,2.50
2022-10-11T21:01:29.363Z,2.40
2022-10-11T21:03:58.299Z,2.45
2022-10-11T21:06:26.825Z,2.33
2022-10-11T21:08:55.297Z,2.67
2022-10-11T21:11:25.416Z,2.35
2022-10-11T21:13:54.817Z,2.33
2022-10-11T21:16:21.857Z,2.25
2022-10-11T21:18:51.266Z,2.50
2022-10-11T21:21:18.856Z,2.60
2022-10-11T21:23:49.359Z,2.20
2022-10-11T21:26:16.629Z,2.30
2022-10-11T21:28:46.065Z,2.17
2022-10-11T21:31:16.869Z,2.40
2022-10-11T21:33:45.259Z,2.03
2022-10-11T21:36:14.964Z,2.30
2022-10-11T21:38:42.434Z,2.45
2022-10-11T21:41:14.190Z,2.38
2022-10-11T21:43:41.862Z,2.15
2022-10-11T21:46:10.655Z,2.20
2022-10-11T21:48:37.831Z,2.40
2022-10-11T21:51:05.539Z,2.35
2022-10-11T21:53:33.158Z,2.20
2022-10-11T21:56:01.245Z,2.70
2022-10-11T21:58:32.955Z,2.63
2022-10-11T22:00:59.989Z,2.40
2022-10-11T22:03:28.743Z,2.55
2022-10-11T22:05:56.089Z,2.22
2022-10-11T22:08:25.934Z,2.35
2022-10-11T22:10:55.224Z,2.47
2022-10-11T22:13:23.665Z,2.53
2022-10-11T22:15:52.181Z,2.60
2022-10-11T22:18:19.335Z,2.30
2022-10-11T22:20:46.462Z,2.80
2022-10-11T22:23:13.618Z,2.75
2022-10-11T22:25:41.953Z,2.75
2022-10-11T22:28:09.095Z,2.25
2022-10-11T22:30:36.047Z,2.60
2022-10-11T22:33:04.646Z,2.55
2022-10-11T22:35:37.150Z,2.80
2022-10-11T22:38:05.594Z,2.88
2022-10-11T22:40:32.610Z,3.05
2022-10-11T22:42:59.392Z,3.10
2022-10-11T22:45:26.339Z,3.10
2022-10-11T22:47:53.366Z,2.60
2022-10-11T22:50:21.710Z,2.70
2022-10-11T22:52:48.668Z,2.72
2022-10-11T22:55:20.248Z,2.70
2022-10-11T22:57:47.303Z,2.58
2022-10-11T23:00:15.099Z,2.55
2022-10-11T23:02:42.022Z,2.60
2022-10-11T23:05:09.420Z,2.45
2022-10-11T23:07:41.181Z,2.67
2022-10-11T23:10:09.270Z,2.88
2022-10-11T23:12:36.611Z,2.72
2022-10-11T23:15:05.029Z,2.53
2022-10-11T23:17:31.995Z,2.60
2022-10-11T23:19:59.407Z,2.75
2022-10-11T23:22:26.338Z,3.08
2022-10-11T23:24:54.653Z,2.90
2022-10-11T23:27:21.594Z,2.97
2022-10-11T23:29:48.686Z,3.17
2022-10-11T23:32:15.606Z,2.70
2022-10-11T23:34:42.560Z,2.60
2022-10-11T23:37:09.475Z,3.08
2022-10-11T23:39:36.379Z,3.05
2022-10-11T23:42:04.948Z,2.75
2022-10-11T23:44:32.324Z,2.90
2022-10-11T23:46:59.558Z,2.88
2022-10-11T23:49:26.517Z,3.28
2022-10-11T23:51:53.536Z,2.67
2022-10-11T23:54:20.488Z,2.80
2022-10-11T23:56:47.490Z,2.58
2022-10-11T23:59:15.872Z,3.08
